createdAt,value
2023-12-29T00:00:20.957Z,1003.96
2023-12-29T00:00:42.088Z,1004.00
2023-12-29T00:01:03.277Z,1004.02
2023-12-29T00:01:24.461Z,1003.98
2023-12-29T00:01:45.706Z,1004.00
2023-12-29T00:02:06.797Z,1004.00
2023-12-29T00:02:27.861Z,1003.98
2023-12-29T00:02:48.979Z,1004.02
2023-12-29T00:03:10.228Z,1004.04
2023-12-29T00:03:31.375Z,1004.02
2023-12-29T00:03:52.637Z,1004.00
2023-12-29T00:04:13.892Z,1003.98
2023-12-29T00:04:35.011Z,1003.98
2023-12-29T00:04:56.134Z,1004.02
2023-12-29T00:05:17.270Z,1004.02
2023-12-29T00:05:38.440Z,1003.98
2023-12-29T00:05:59.541Z,1003.98
2023-12-29T00:06:20.592Z,1003.98
2023-12-29T00:06:49.886Z,1003.92
2023-12-29T00:07:08.663Z,1003.92
2023-12-29T00:07:29.747Z,1003.96
2023-12-29T00:07:50.934Z,1003.92
2023-12-29T00:08:12.045Z,1003.94
2023-12-29T00:08:33.090Z,1003.94
2023-12-29T00:08:54.206Z,1003.94
2023-12-29T00:09:15.362Z,1003.90
2023-12-29T00:09:36.532Z,1003.94
2023-12-29T00:09:57.674Z,1003.96
2023-12-29T00:10:18.858Z,1003.89
2023-12-29T00:10:40.077Z,1003.94
2023-12-29T00:11:01.187Z,1003.92
2023-12-29T00:11:22.282Z,1003.94
2023-12-29T00:11:43.327Z,1003.90
2023-12-29T00:12:04.394Z,1003.89
2023-12-29T00:12:25.456Z,1003.89
2023-12-29T00:12:46.539Z,1003.85
2023-12-29T00:13:07.808Z,1003.90
2023-12-29T00:13:28.891Z,1003.85
2023-12-29T00:13:49.956Z,1003.87
2023-12-29T00:14:11.039Z,1003.89
2023-12-29T00:14:32.116Z,1003.83
2023-12-29T00:14:53.227Z,1003.81
2023-12-29T00:15:14.556Z,1003.83
2023-12-29T00:15:35.701Z,1003.83
2023-12-29T00:15:56.784Z,1003.83
2023-12-29T00:16:17.836Z,1003.87
2023-12-29T00:16:38.913Z,1003.83
2023-12-29T00:16:59.983Z,1003.83
2023-12-29T00:17:21.105Z,1003.81
2023-12-29T00:17:42.955Z,1003.83
2023-12-29T00:18:04.734Z,1003.77
2023-12-29T00:18:26.043Z,1003.79
2023-12-29T00:18:47.375Z,1003.77
2023-12-29T00:19:08.665Z,1003.77
2023-12-29T00:19:29.844Z,1003.75
2023-12-29T00:19:51.004Z,1003.83
2023-12-29T00:20:12.921Z,1003.83
2023-12-29T00:20:41.235Z,1003.81
2023-12-29T00:21:06.658Z,1003.83
2023-12-29T00:21:28.120Z,1003.85
2023-12-29T00:21:49.209Z,1003.83
2023-12-29T00:22:10.378Z,1003.85
2023-12-29T00:22:31.467Z,1003.83
2023-12-29T00:22:52.580Z,1003.85
2023-12-29T00:23:13.641Z,1003.81
2023-12-29T00:23:34.704Z,1003.79
2023-12-29T00:23:55.759Z,1003.83
2023-12-29T00:24:16.834Z,1003.79
2023-12-29T00:24:37.956Z,1003.79
2023-12-29T00:24:59.094Z,1003.85
2023-12-29T00:25:20.255Z,1003.81
2023-12-29T00:25:41.357Z,1003.79
2023-12-29T00:26:02.461Z,1003.79
2023-12-29T00:26:23.531Z,1003.81
2023-12-29T00:26:44.596Z,1003.75
2023-12-29T00:27:05.658Z,1003.73
2023-12-29T00:27:26.746Z,1003.75
2023-12-29T00:27:47.825Z,1003.75
2023-12-29T00:28:08.898Z,1003.77
2023-12-29T00:28:29.971Z,1003.75
2023-12-29T00:28:51.039Z,1003.75
2023-12-29T00:29:12.097Z,1003.71
2023-12-29T00:29:33.196Z,1003.71
2023-12-29T00:29:54.230Z,1003.75
2023-12-29T00:30:15.378Z,1003.73
2023-12-29T00:30:47.926Z,1003.69
2023-12-29T00:31:04.357Z,1003.67
2023-12-29T00:31:26.781Z,1003.73
2023-12-29T00:31:47.924Z,1003.69
2023-12-29T00:32:09.144Z,1003.71
2023-12-29T00:32:30.253Z,1003.71
2023-12-29T00:32:51.371Z,1003.71
2023-12-29T00:33:12.484Z,1003.67
2023-12-29T00:33:33.791Z,1003.71
2023-12-29T00:33:54.959Z,1003.73
2023-12-29T00:34:16.128Z,1003.67
2023-12-29T00:34:37.364Z,1003.65
2023-12-29T00:34:58.492Z,1003.65
2023-12-29T00:35:19.577Z,1003.65
2023-12-29T00:35:40.632Z,1003.63
2023-12-29T00:36:01.706Z,1003.69
2023-12-29T00:36:22.840Z,1003.65
2023-12-29T00:36:44.144Z,1003.67
2023-12-29T00:37:05.228Z,1003.69
2023-12-29T00:37:26.261Z,1003.71
2023-12-29T00:37:47.341Z,1003.69
2023-12-29T00:38:08.406Z,1003.71
2023-12-29T00:38:29.686Z,1003.67
2023-12-29T00:38:50.758Z,1003.71
2023-12-29T00:39:11.820Z,1003.65
2023-12-29T00:39:33.097Z,1003.67
2023-12-29T00:39:54.250Z,1003.63
2023-12-29T00:40:15.443Z,1003.69
2023-12-29T00:40:36.557Z,1003.67
2023-12-29T00:40:57.674Z,1003.63
2023-12-29T00:41:18.731Z,1003.67
2023-12-29T00:41:40.016Z,1003.63
2023-12-29T00:42:01.297Z,1003.65
2023-12-29T00:42:22.393Z,1003.63
2023-12-29T00:42:43.484Z,1003.67
2023-12-29T00:43:04.560Z,1003.71
2023-12-29T00:43:25.697Z,1003.67
2023-12-29T00:43:46.795Z,1003.63
2023-12-29T00:44:07.851Z,1003.65
2023-12-29T00:44:28.950Z,1003.63
2023-12-29T00:44:50.004Z,1003.61
2023-12-29T00:45:11.055Z,1003.55
2023-12-29T00:45:32.151Z,1003.57
2023-12-29T00:45:53.202Z,1003.65
2023-12-29T00:46:14.400Z,1003.51
2023-12-29T00:46:35.511Z,1003.53
2023-12-29T00:46:56.627Z,1003.51
2023-12-29T00:47:17.795Z,1003.49
2023-12-29T00:47:38.898Z,1003.57
2023-12-29T00:48:00.354Z,1003.47
2023-12-29T00:48:21.652Z,1003.47
2023-12-29T00:48:42.936Z,1003.53
2023-12-29T00:49:04.322Z,1003.45
2023-12-29T00:49:26.181Z,1003.43
2023-12-29T00:49:47.341Z,1003.51
2023-12-29T00:50:08.402Z,1003.45
2023-12-29T00:50:29.720Z,1003.47
2023-12-29T00:50:50.795Z,1003.51
2023-12-29T00:51:11.863Z,1003.51
2023-12-29T00:51:32.951Z,1003.47
2023-12-29T00:51:54.043Z,1003.43
2023-12-29T00:52:15.381Z,1003.43
2023-12-29T00:52:36.486Z,1003.47
2023-12-29T00:52:57.538Z,1003.47
2023-12-29T00:53:18.594Z,1003.41
2023-12-29T00:53:39.689Z,1003.39
2023-12-29T00:54:00.781Z,1003.41
2023-12-29T00:54:21.876Z,1003.35
2023-12-29T00:54:43.036Z,1003.41
2023-12-29T00:55:04.590Z,1003.41
2023-12-29T00:55:25.787Z,1003.39
2023-12-29T00:55:46.893Z,1003.39
2023-12-29T00:56:07.961Z,1003.37
2023-12-29T00:56:29.031Z,1003.37
2023-12-29T00:56:50.111Z,1003.35
2023-12-29T00:57:11.170Z,1003.37
2023-12-29T00:57:32.468Z,1003.32
2023-12-29T00:57:53.758Z,1003.30
2023-12-29T00:58:14.880Z,1003.28
2023-12-29T00:58:35.938Z,1003.30
2023-12-29T00:58:56.993Z,1003.30
2023-12-29T00:59:18.075Z,1003.28
2023-12-29T00:59:39.127Z,1003.30
2023-12-29T01:00:00.306Z,1003.30
2023-12-29T01:00:21.358Z,1003.30
2023-12-29T01:00:42.569Z,1003.30
2023-12-29T01:01:03.691Z,1003.24
2023-12-29T01:01:24.869Z,1003.28
2023-12-29T01:01:46.273Z,1003.26
2023-12-29T01:02:07.451Z,1003.26
2023-12-29T01:02:28.525Z,1003.30
2023-12-29T01:02:49.789Z,1003.24
2023-12-29T01:03:10.900Z,1003.26
2023-12-29T01:03:32.026Z,1003.32
2023-12-29T01:03:53.137Z,1003.32
2023-12-29T01:04:14.389Z,1003.28
2023-12-29T01:04:35.726Z,1003.28
2023-12-29T01:04:56.993Z,1003.30
2023-12-29T01:05:18.143Z,1003.32
2023-12-29T01:05:39.286Z,1003.32
2023-12-29T01:06:00.357Z,1003.32
2023-12-29T01:06:21.405Z,1003.32
2023-12-29T01:06:42.511Z,1003.34
2023-12-29T01:07:04.203Z,1003.35
2023-12-29T01:07:25.258Z,1003.39
2023-12-29T01:07:46.360Z,1003.37
2023-12-29T01:08:07.632Z,1003.26
2023-12-29T01:08:28.772Z,1003.32
2023-12-29T01:08:49.842Z,1003.34
2023-12-29T01:09:10.909Z,1003.39
2023-12-29T01:09:32.022Z,1003.35
2023-12-29T01:09:53.066Z,1003.39
2023-12-29T01:10:14.284Z,1003.37
2023-12-29T01:10:35.383Z,1003.41
2023-12-29T01:10:56.467Z,1003.41
2023-12-29T01:11:17.583Z,1003.41
2023-12-29T01:11:38.621Z,1003.37
2023-12-29T01:11:59.690Z,1003.37
2023-12-29T01:12:20.770Z,1003.39
2023-12-29T01:12:41.870Z,1003.41
2023-12-29T01:13:02.974Z,1003.37
2023-12-29T01:13:24.233Z,1003.35
2023-12-29T01:13:45.504Z,1003.34
2023-12-29T01:14:06.565Z,1003.37
2023-12-29T01:14:27.636Z,1003.41
2023-12-29T01:14:48.690Z,1003.34
2023-12-29T01:15:09.826Z,1003.34
2023-12-29T01:15:30.930Z,1003.35
2023-12-29T01:15:52.127Z,1003.35
2023-12-29T01:16:13.231Z,1003.35
2023-12-29T01:16:34.360Z,1003.34
2023-12-29T01:16:56.452Z,1003.39
2023-12-29T01:17:18.365Z,1003.34
2023-12-29T01:17:39.435Z,1003.34
2023-12-29T01:18:00.879Z,1003.35
2023-12-29T01:18:22.467Z,1003.35
2023-12-29T01:18:43.816Z,1003.39
2023-12-29T01:19:05.319Z,1003.39
2023-12-29T01:19:26.512Z,1003.37
2023-12-29T01:19:47.786Z,1003.39
2023-12-29T01:20:08.969Z,1003.37
2023-12-29T01:20:30.045Z,1003.32
2023-12-29T01:20:51.123Z,1003.37
2023-12-29T01:21:12.202Z,1003.35
2023-12-29T01:21:33.282Z,1003.41
2023-12-29T01:21:54.414Z,1003.39
2023-12-29T01:22:15.675Z,1003.41
2023-12-29T01:22:36.728Z,1003.34
2023-12-29T01:22:57.800Z,1003.34
2023-12-29T01:23:18.880Z,1003.37
2023-12-29T01:23:39.956Z,1003.34
2023-12-29T01:24:01.063Z,1003.37
2023-12-29T01:24:26.812Z,1003.41
2023-12-29T01:24:49.342Z,1003.32
2023-12-29T01:25:10.473Z,1003.34
2023-12-29T01:25:31.705Z,1003.35
2023-12-29T01:25:52.809Z,1003.37
2023-12-29T01:26:13.875Z,1003.34
2023-12-29T01:26:34.935Z,1003.34
2023-12-29T01:26:56.036Z,1003.32
2023-12-29T01:27:17.127Z,1003.37
2023-12-29T01:27:38.236Z,1003.35
2023-12-29T01:27:59.347Z,1003.39
2023-12-29T01:28:20.466Z,1003.35
2023-12-29T01:28:41.784Z,1003.34
2023-12-29T01:29:02.989Z,1003.34
2023-12-29T01:29:24.256Z,1003.34
2023-12-29T01:29:45.395Z,1003.37
2023-12-29T01:30:06.457Z,1003.32
2023-12-29T01:30:27.870Z,1003.34
2023-12-29T01:30:48.977Z,1003.41
2023-12-29T01:31:10.154Z,1003.34
2023-12-29T01:31:31.470Z,1003.35
2023-12-29T01:31:52.628Z,1003.34
2023-12-29T01:32:13.697Z,1003.39
2023-12-29T01:32:34.789Z,1003.43
2023-12-29T01:32:55.860Z,1003.41
2023-12-29T01:33:17.008Z,1003.41
2023-12-29T01:33:38.109Z,1003.43
2023-12-29T01:33:59.319Z,1003.39
2023-12-29T01:34:20.520Z,1003.47
2023-12-29T01:34:41.982Z,1003.47
2023-12-29T01:35:03.160Z,1003.45
2023-12-29T01:35:24.204Z,1003.47
2023-12-29T01:35:45.269Z,1003.45
2023-12-29T01:36:11.470Z,1003.45
2023-12-29T01:36:33.374Z,1003.43
2023-12-29T01:36:54.507Z,1003.45
2023-12-29T01:37:15.626Z,1003.43
2023-12-29T01:37:36.843Z,1003.41
2023-12-29T01:37:58.345Z,1003.41
2023-12-29T01:38:19.567Z,1003.45
2023-12-29T01:38:40.644Z,1003.39
2023-12-29T01:39:01.693Z,1003.43
2023-12-29T01:39:22.963Z,1003.43
2023-12-29T01:39:44.051Z,1003.43
2023-12-29T01:40:05.296Z,1003.43
2023-12-29T01:40:26.381Z,1003.41
2023-12-29T01:40:47.418Z,1003.43
2023-12-29T01:41:08.502Z,1003.43
2023-12-29T01:41:29.567Z,1003.39
2023-12-29T01:41:50.641Z,1003.41
2023-12-29T01:42:11.711Z,1003.41
2023-12-29T01:42:32.811Z,1003.39
2023-12-29T01:42:53.922Z,1003.41
2023-12-29T01:43:15.109Z,1003.43
2023-12-29T01:43:36.183Z,1003.45
2023-12-29T01:43:57.289Z,1003.39
2023-12-29T01:44:18.358Z,1003.41
2023-12-29T01:44:39.599Z,1003.35
2023-12-29T01:45:00.839Z,1003.43
2023-12-29T01:45:21.978Z,1003.43
2023-12-29T01:45:52.003Z,1003.39
2023-12-29T01:46:10.045Z,1003.39
2023-12-29T01:46:31.152Z,1003.35
2023-12-29T01:46:52.202Z,1003.39
2023-12-29T01:47:13.265Z,1003.41
2023-12-29T01:47:34.338Z,1003.39
2023-12-29T01:47:55.501Z,1003.41
2023-12-29T01:48:16.658Z,1003.39
2023-12-29T01:48:37.844Z,1003.37
2023-12-29T01:48:59.029Z,1003.37
2023-12-29T01:49:20.200Z,1003.39
2023-12-29T01:49:41.385Z,1003.39
2023-12-29T01:50:02.749Z,1003.39
2023-12-29T01:50:23.855Z,1003.41
2023-12-29T01:50:44.965Z,1003.43
2023-12-29T01:51:06.156Z,1003.41
2023-12-29T01:51:27.463Z,1003.43
2023-12-29T01:51:48.569Z,1003.37
2023-12-29T01:52:09.824Z,1003.39
2023-12-29T01:52:30.962Z,1003.39
2023-12-29T01:52:52.082Z,1003.39
2023-12-29T01:53:13.113Z,1003.41
2023-12-29T01:53:39.658Z,1003.41
2023-12-29T01:54:01.139Z,1003.43
2023-12-29T01:54:22.232Z,1003.39
2023-12-29T01:54:43.375Z,1003.39
2023-12-29T01:55:04.978Z,1003.37
2023-12-29T01:55:26.023Z,1003.39
2023-12-29T01:55:47.087Z,1003.41
2023-12-29T01:56:08.170Z,1003.43
2023-12-29T01:56:29.236Z,1003.39
2023-12-29T01:56:50.297Z,1003.37
2023-12-29T01:57:11.361Z,1003.37
2023-12-29T01:57:32.454Z,1003.34
2023-12-29T01:57:53.512Z,1003.35
2023-12-29T01:58:14.608Z,1003.35
2023-12-29T01:58:35.710Z,1003.34
2023-12-29T01:59:00.361Z,1003.34
2023-12-29T01:59:26.275Z,1003.37
2023-12-29T01:59:47.966Z,1003.35
2023-12-29T02:00:09.082Z,1003.34
2023-12-29T02:00:30.391Z,1003.32
2023-12-29T02:00:51.575Z,1003.34
2023-12-29T02:01:12.908Z,1003.30
2023-12-29T02:01:34.148Z,1003.34
2023-12-29T02:01:55.274Z,1003.28
2023-12-29T02:02:16.376Z,1003.32
2023-12-29T02:02:37.446Z,1003.32
2023-12-29T02:02:58.518Z,1003.30
2023-12-29T02:03:19.601Z,1003.30
2023-12-29T02:03:40.778Z,1003.32
2023-12-29T02:04:01.909Z,1003.30
2023-12-29T02:04:23.086Z,1003.32
2023-12-29T02:04:44.342Z,1003.22
2023-12-29T02:05:05.595Z,1003.32
2023-12-29T02:05:26.751Z,1003.30
2023-12-29T02:05:47.897Z,1003.30
2023-12-29T02:06:08.993Z,1003.30
2023-12-29T02:06:30.078Z,1003.26
2023-12-29T02:06:51.196Z,1003.34
2023-12-29T02:07:12.391Z,1003.32
2023-12-29T02:07:33.467Z,1003.34
2023-12-29T02:07:54.698Z,1003.34
2023-12-29T02:08:15.777Z,1003.30
2023-12-29T02:08:36.833Z,1003.32
2023-12-29T02:08:57.899Z,1003.32
2023-12-29T02:09:18.965Z,1003.32
2023-12-29T02:09:40.072Z,1003.28
2023-12-29T02:10:01.226Z,1003.28
2023-12-29T02:10:22.360Z,1003.35
2023-12-29T02:10:43.577Z,1003.35
2023-12-29T02:11:04.631Z,1003.32
2023-12-29T02:11:25.684Z,1003.30
2023-12-29T02:11:46.762Z,1003.28
2023-12-29T02:12:07.811Z,1003.26
2023-12-29T02:12:28.913Z,1003.30
2023-12-29T02:12:50.013Z,1003.32
2023-12-29T02:13:11.110Z,1003.26
2023-12-29T02:13:32.145Z,1003.28
2023-12-29T02:13:53.211Z,1003.22
2023-12-29T02:14:14.273Z,1003.18
2023-12-29T02:14:35.335Z,1003.20
2023-12-29T02:14:56.413Z,1003.22
2023-12-29T02:15:17.481Z,1003.20
2023-12-29T02:15:38.617Z,1003.22
2023-12-29T02:15:59.792Z,1003.20
2023-12-29T02:16:20.909Z,1003.24
2023-12-29T02:16:41.974Z,1003.26
2023-12-29T02:17:03.055Z,1003.24
2023-12-29T02:17:24.181Z,1003.22
2023-12-29T02:17:45.413Z,1003.28
2023-12-29T02:18:06.776Z,1003.18
2023-12-29T02:18:28.151Z,1003.18
2023-12-29T02:18:49.277Z,1003.16
2023-12-29T02:19:10.396Z,1003.12
2023-12-29T02:19:31.540Z,1003.18
2023-12-29T02:19:52.716Z,1003.16
2023-12-29T02:20:13.785Z,1003.18
2023-12-29T02:20:34.903Z,1003.20
2023-12-29T02:20:56.131Z,1003.18
2023-12-29T02:21:17.231Z,1003.16
2023-12-29T02:21:38.363Z,1003.20
2023-12-29T02:21:59.450Z,1003.22
2023-12-29T02:22:20.722Z,1003.22
2023-12-29T02:22:41.809Z,1003.18
2023-12-29T02:23:02.893Z,1003.14
2023-12-29T02:23:23.933Z,1003.14
2023-12-29T02:23:45.005Z,1003.12
2023-12-29T02:24:06.080Z,1003.06
2023-12-29T02:24:27.451Z,1003.10
2023-12-29T02:24:48.724Z,1003.12
2023-12-29T02:25:10.138Z,1003.14
2023-12-29T02:25:31.248Z,1003.14
2023-12-29T02:25:52.301Z,1003.16
2023-12-29T02:26:13.575Z,1003.18
2023-12-29T02:26:34.847Z,1003.16
2023-12-29T02:26:55.920Z,1003.14
2023-12-29T02:27:17.047Z,1003.16
2023-12-29T02:27:38.093Z,1003.14
2023-12-29T02:27:59.474Z,1003.16
2023-12-29T02:28:20.754Z,1003.12
2023-12-29T02:28:41.845Z,1003.12
2023-12-29T02:29:02.907Z,1003.10
2023-12-29T02:29:24.097Z,1003.12
2023-12-29T02:29:45.180Z,1003.14
2023-12-29T02:30:06.324Z,1003.08
2023-12-29T02:30:27.580Z,1003.08
2023-12-29T02:30:48.776Z,1003.08
2023-12-29T02:31:10.006Z,1003.08
2023-12-29T02:31:31.241Z,1003.10
2023-12-29T02:31:52.539Z,1003.10
2023-12-29T02:32:13.605Z,1003.12
2023-12-29T02:32:34.715Z,1003.12
2023-12-29T02:32:55.988Z,1003.10
2023-12-29T02:33:17.283Z,1003.10
2023-12-29T02:33:38.462Z,1003.08
2023-12-29T02:33:59.780Z,1003.10
2023-12-29T02:34:21.033Z,1003.12
2023-12-29T02:34:42.409Z,1003.14
2023-12-29T02:35:04.168Z,1003.10
2023-12-29T02:35:25.324Z,1003.08
2023-12-29T02:35:46.381Z,1003.08
2023-12-29T02:36:07.487Z,1003.12
2023-12-29T02:36:28.535Z,1003.12
2023-12-29T02:36:49.834Z,1003.08
2023-12-29T02:37:11.023Z,1003.08
2023-12-29T02:37:32.077Z,1003.12
2023-12-29T02:37:53.142Z,1003.10
2023-12-29T02:38:14.226Z,1003.10
2023-12-29T02:38:35.286Z,1003.12
2023-12-29T02:38:56.368Z,1003.10
2023-12-29T02:39:17.423Z,1003.14
2023-12-29T02:39:38.583Z,1003.16
2023-12-29T02:39:59.706Z,1003.12
2023-12-29T02:40:20.821Z,1003.10
2023-12-29T02:40:41.889Z,1003.12
2023-12-29T02:41:03.459Z,1003.08
2023-12-29T02:41:24.527Z,1003.12
2023-12-29T02:41:45.645Z,1003.12
2023-12-29T02:42:06.918Z,1003.16
2023-12-29T02:42:28.082Z,1003.14
2023-12-29T02:42:49.222Z,1003.12
2023-12-29T02:43:10.459Z,1003.10
2023-12-29T02:43:31.540Z,1003.10
2023-12-29T02:43:52.616Z,1003.10
2023-12-29T02:44:13.673Z,1003.10
2023-12-29T02:44:34.738Z,1003.06
2023-12-29T02:44:55.799Z,1003.08
2023-12-29T02:45:16.883Z,1003.10
2023-12-29T02:45:38.037Z,1003.06
2023-12-29T02:45:59.093Z,1003.08
2023-12-29T02:46:20.234Z,1003.10
2023-12-29T02:46:41.327Z,1003.06
2023-12-29T02:47:02.388Z,1003.10
2023-12-29T02:47:23.514Z,1003.00
2023-12-29T02:47:44.819Z,1003.06
2023-12-29T02:48:06.552Z,1003.04
2023-12-29T02:48:27.974Z,1003.04
2023-12-29T02:48:49.280Z,1003.06
2023-12-29T02:49:10.485Z,1003.08
2023-12-29T02:49:31.620Z,1003.08
2023-12-29T02:49:52.774Z,1003.10
2023-12-29T02:50:13.871Z,1003.08
2023-12-29T02:50:34.977Z,1003.10
2023-12-29T02:50:56.046Z,1003.12
2023-12-29T02:51:17.112Z,1003.10
2023-12-29T02:51:38.209Z,1003.10
2023-12-29T02:51:59.402Z,1003.10
2023-12-29T02:52:20.517Z,1003.12
2023-12-29T02:52:41.758Z,1003.14
2023-12-29T02:53:03.035Z,1003.14
2023-12-29T02:53:24.085Z,1003.16
2023-12-29T02:53:45.202Z,1003.12
2023-12-29T02:54:06.265Z,1003.14
2023-12-29T02:54:27.336Z,1003.16
2023-12-29T02:54:48.448Z,1003.14
2023-12-29T02:55:09.579Z,1003.20
2023-12-29T02:55:30.685Z,1003.14
2023-12-29T02:55:51.741Z,1003.14
2023-12-29T02:56:12.817Z,1003.14
2023-12-29T02:56:33.883Z,1003.12
2023-12-29T02:56:54.951Z,1003.14
2023-12-29T02:57:16.028Z,1003.18
2023-12-29T02:57:37.098Z,1003.10
2023-12-29T02:57:58.739Z,1003.14
2023-12-29T02:58:20.097Z,1003.12
2023-12-29T02:58:41.405Z,1003.14
2023-12-29T02:59:02.439Z,1003.12
2023-12-29T02:59:23.508Z,1003.10
2023-12-29T02:59:44.569Z,1003.14
2023-12-29T03:00:06.114Z,1003.18
2023-12-29T03:00:27.395Z,1003.12
2023-12-29T03:00:48.551Z,1003.06
2023-12-29T03:01:09.731Z,1003.08
2023-12-29T03:01:30.938Z,1003.08
2023-12-29T03:01:52.199Z,1003.08
2023-12-29T03:02:13.354Z,1003.08
2023-12-29T03:02:34.424Z,1003.12
2023-12-29T03:02:55.522Z,1003.08
2023-12-29T03:03:16.645Z,1003.10
2023-12-29T03:03:37.879Z,1003.12
2023-12-29T03:03:59.018Z,1003.08
2023-12-29T03:04:20.146Z,1003.12
2023-12-29T03:04:41.171Z,1003.12
2023-12-29T03:05:02.277Z,1003.10
2023-12-29T03:05:23.405Z,1003.18
2023-12-29T03:05:44.471Z,1003.06
2023-12-29T03:06:05.560Z,1003.06
2023-12-29T03:06:26.595Z,1003.08
2023-12-29T03:06:47.729Z,1003.08
2023-12-29T03:07:08.908Z,1003.10
2023-12-29T03:07:30.051Z,1003.08
2023-12-29T03:07:51.115Z,1003.06
2023-12-29T03:08:12.181Z,1003.04
2023-12-29T03:08:33.457Z,1003.08
2023-12-29T03:08:54.567Z,1003.10
2023-12-29T03:09:15.664Z,1003.08
2023-12-29T03:09:36.739Z,1003.12
2023-12-29T03:09:57.811Z,1003.10
2023-12-29T03:10:18.962Z,1003.08
2023-12-29T03:10:40.046Z,1003.12
2023-12-29T03:11:01.101Z,1003.10
2023-12-29T03:11:22.180Z,1003.10
2023-12-29T03:11:43.249Z,1003.08
2023-12-29T03:12:04.335Z,1003.10
2023-12-29T03:12:25.392Z,1003.12
2023-12-29T03:12:46.536Z,1003.08
2023-12-29T03:13:07.647Z,1003.12
2023-12-29T03:13:29.499Z,1003.12
2023-12-29T03:13:50.785Z,1003.14
2023-12-29T03:14:12.065Z,1003.12
2023-12-29T03:14:33.112Z,1003.14
2023-12-29T03:14:54.183Z,1003.10
2023-12-29T03:15:15.243Z,1003.14
2023-12-29T03:15:36.337Z,1003.10
2023-12-29T03:15:57.442Z,1003.12
2023-12-29T03:16:18.566Z,1003.10
2023-12-29T03:16:39.618Z,1003.06
2023-12-29T03:17:00.689Z,1003.06
2023-12-29T03:17:21.763Z,1003.06
2023-12-29T03:17:42.861Z,1003.04
2023-12-29T03:18:04.283Z,1003.02
2023-12-29T03:18:25.656Z,1003.06
2023-12-29T03:18:46.900Z,1003.04
2023-12-29T03:19:08.303Z,1003.06
2023-12-29T03:19:29.904Z,1003.08
2023-12-29T03:19:51.047Z,1003.08
2023-12-29T03:20:12.143Z,1003.06
2023-12-29T03:20:33.210Z,1003.06
2023-12-29T03:20:54.262Z,1003.06
2023-12-29T03:21:15.336Z,1003.06
2023-12-29T03:21:36.475Z,1003.08
2023-12-29T03:21:57.562Z,1003.10
2023-12-29T03:22:18.671Z,1003.12
2023-12-29T03:22:39.726Z,1003.08
2023-12-29T03:23:00.770Z,1003.08
2023-12-29T03:23:21.871Z,1003.10
2023-12-29T03:23:42.932Z,1003.10
2023-12-29T03:24:04.013Z,1003.02
2023-12-29T03:24:25.126Z,1003.06
2023-12-29T03:24:46.274Z,1003.10
2023-12-29T03:25:07.498Z,1003.04
2023-12-29T03:25:28.600Z,1003.02
2023-12-29T03:25:49.664Z,1003.04
2023-12-29T03:26:10.744Z,1003.04
2023-12-29T03:26:31.848Z,1003.00
2023-12-29T03:26:52.943Z,1002.96
2023-12-29T03:27:13.976Z,1002.94
2023-12-29T03:27:35.106Z,1002.96
2023-12-29T03:27:56.206Z,1002.90
2023-12-29T03:28:17.330Z,1002.90
2023-12-29T03:28:38.370Z,1002.90
2023-12-29T03:28:59.452Z,1002.90
2023-12-29T03:29:20.558Z,1002.88
2023-12-29T03:29:41.868Z,1002.85
2023-12-29T03:30:03.217Z,1002.87
2023-12-29T03:30:24.435Z,1002.85
2023-12-29T03:30:45.599Z,1002.88
2023-12-29T03:31:07.188Z,1002.90
2023-12-29T03:31:28.522Z,1002.88
2023-12-29T03:31:49.672Z,1002.94
2023-12-29T03:32:10.740Z,1002.83
2023-12-29T03:32:31.841Z,1002.90
2023-12-29T03:32:52.933Z,1002.88
2023-12-29T03:33:14.085Z,1002.90
2023-12-29T03:33:35.292Z,1002.96
2023-12-29T03:33:56.599Z,1002.94
2023-12-29T03:34:17.932Z,1002.94
2023-12-29T03:34:39.241Z,1002.92
2023-12-29T03:35:00.675Z,1002.87
2023-12-29T03:35:21.973Z,1002.90
2023-12-29T03:35:43.034Z,1002.87
2023-12-29T03:36:04.491Z,1002.83
2023-12-29T03:36:25.567Z,1002.87
2023-12-29T03:36:46.631Z,1002.85
2023-12-29T03:37:07.759Z,1002.72
2023-12-29T03:37:28.790Z,1002.87
2023-12-29T03:37:49.876Z,1002.85
2023-12-29T03:38:10.924Z,1002.87
2023-12-29T03:38:31.996Z,1002.90
2023-12-29T03:38:53.079Z,1002.92
2023-12-29T03:39:14.157Z,1002.90
2023-12-29T03:39:35.253Z,1002.92
2023-12-29T03:39:56.438Z,1002.90
2023-12-29T03:40:17.765Z,1002.92
2023-12-29T03:40:39.131Z,1002.92
2023-12-29T03:41:00.195Z,1002.92
2023-12-29T03:41:21.268Z,1002.94
2023-12-29T03:41:42.349Z,1002.92
2023-12-29T03:42:03.697Z,1002.90
2023-12-29T03:42:24.759Z,1002.85
2023-12-29T03:42:45.884Z,1002.85
2023-12-29T03:43:07.108Z,1002.87
2023-12-29T03:43:29.030Z,1002.83
2023-12-29T03:43:50.098Z,1002.60
2023-12-29T03:44:11.152Z,1002.68
2023-12-29T03:44:32.217Z,1002.64
2023-12-29T03:44:53.272Z,1002.60
2023-12-29T03:45:14.350Z,1002.64
2023-12-29T03:45:35.524Z,1002.62
2023-12-29T03:45:56.672Z,1002.60
2023-12-29T03:46:17.775Z,1002.60
2023-12-29T03:46:38.821Z,1002.60
2023-12-29T03:46:59.889Z,1002.58
2023-12-29T03:47:20.959Z,1002.57
2023-12-29T03:47:42.130Z,1002.53
2023-12-29T03:48:04.305Z,1002.51
2023-12-29T03:48:25.684Z,1002.49
2023-12-29T03:48:46.950Z,1002.53
2023-12-29T03:49:08.214Z,1002.53
2023-12-29T03:49:29.437Z,1002.57
2023-12-29T03:49:50.610Z,1002.53
2023-12-29T03:50:11.696Z,1002.51
2023-12-29T03:50:32.767Z,1002.49
2023-12-29T03:50:53.967Z,1002.51
2023-12-29T03:51:15.202Z,1002.49
2023-12-29T03:51:36.314Z,1002.45
2023-12-29T03:51:57.471Z,1002.47
2023-12-29T03:52:18.555Z,1002.49
2023-12-29T03:52:39.693Z,1002.43
2023-12-29T03:53:00.750Z,1002.39
2023-12-29T03:53:21.825Z,1002.41
2023-12-29T03:53:42.892Z,1002.35
2023-12-29T03:54:03.956Z,1002.37
2023-12-29T03:54:25.029Z,1002.33
2023-12-29T03:54:46.139Z,1002.31
2023-12-29T03:55:07.282Z,1002.29
2023-12-29T03:55:28.357Z,1002.31
2023-12-29T03:55:49.414Z,1002.35
2023-12-29T03:56:10.509Z,1002.27
2023-12-29T03:56:31.620Z,1002.29
2023-12-29T03:56:52.685Z,1002.33
2023-12-29T03:57:13.771Z,1002.31
2023-12-29T03:57:34.838Z,1002.27
2023-12-29T03:57:55.924Z,1002.29
2023-12-29T03:58:16.989Z,1002.31
2023-12-29T03:58:38.112Z,1002.31
2023-12-29T03:58:59.181Z,1002.33
2023-12-29T03:59:20.245Z,1002.29
2023-12-29T03:59:41.324Z,1002.29
2023-12-29T04:00:02.397Z,1002.29
2023-12-29T04:00:23.481Z,1002.29
2023-12-29T04:00:44.615Z,1002.31
2023-12-29T04:01:05.794Z,1002.31
2023-12-29T04:01:27.934Z,1002.29
2023-12-29T04:01:49.772Z,1002.29
2023-12-29T04:02:10.868Z,1002.23
2023-12-29T04:02:31.958Z,1002.23
2023-12-29T04:02:53.008Z,1002.27
2023-12-29T04:03:14.103Z,1002.29
2023-12-29T04:03:35.178Z,1002.29
2023-12-29T04:03:56.336Z,1002.27
2023-12-29T04:04:17.437Z,1002.27
2023-12-29T04:04:38.656Z,1002.23
2023-12-29T04:04:59.884Z,1002.23
2023-12-29T04:05:21.004Z,1002.23
2023-12-29T04:05:42.076Z,1002.23
2023-12-29T04:06:03.121Z,1002.23
2023-12-29T04:06:24.190Z,1002.21
2023-12-29T04:06:45.358Z,1002.21
2023-12-29T04:07:27.732Z,1002.21
2023-12-29T04:07:48.788Z,1002.19
2023-12-29T04:08:09.862Z,1002.19
2023-12-29T04:08:30.930Z,1002.23
2023-12-29T04:08:52.002Z,1002.21
2023-12-29T04:09:13.048Z,1002.21
2023-12-29T04:09:34.220Z,1002.21
2023-12-29T04:09:55.395Z,1002.21
2023-12-29T04:10:16.446Z,1002.19
2023-12-29T04:10:37.518Z,1002.21
2023-12-29T04:10:58.573Z,1002.21
2023-12-29T04:11:19.683Z,1002.19
2023-12-29T04:11:40.757Z,1002.19
2023-12-29T04:12:02.039Z,1002.17
2023-12-29T04:12:23.301Z,1002.10
2023-12-29T04:12:44.389Z,1002.15
2023-12-29T04:13:05.500Z,1002.11
2023-12-29T04:13:26.540Z,1002.15
2023-12-29T04:13:47.594Z,1002.15
2023-12-29T04:14:08.655Z,1002.19
2023-12-29T04:14:29.740Z,1002.11
2023-12-29T04:14:50.773Z,1002.13
2023-12-29T04:15:11.835Z,1002.11
2023-12-29T04:15:32.929Z,1002.13
2023-12-29T04:15:54.050Z,1002.15
2023-12-29T04:16:15.079Z,1002.11
2023-12-29T04:16:36.143Z,1002.19
2023-12-29T04:16:57.197Z,1002.19
2023-12-29T04:17:18.484Z,1002.15